sensor_id;sensor_type;location;lat;lon;timestamp;P1;durP1;ratioP1;P2;durP2;ratioP2
40453;SDS011;26160;51.858;4.398;2022-10-16T00:01:26;2.78;;;0.90;;
40453;SDS011;26160;51.858;4.398;2022-10-16T00:03:54;6.50;;;1.17;;
40453;SDS011;26160;51.858;4.398;2022-10-16T00:06:21;2.65;;;1.23;;
40453;SDS011;26160;51.858;4.398;2022-10-16T00:08:52;3.42;;;1.02;;
40453;SDS011;26160;51.858;4.398;2022-10-16T00:11:22;2.00;;;1.02;;
40453;SDS011;26160;51.858;4.398;2022-10-16T00:13:57;3.90;;;1.20;;
40453;SDS011;26160;51.858;4.398;2022-10-16T00:16:25;4.68;;;1.27;;
40453;SDS011;26160;51.858;4.398;2022-10-16T00:18:52;4.82;;;0.90;;
40453;SDS011;26160;51.858;4.398;2022-10-16T00:21:20;2.25;;;1.10;;
40453;SDS011;26160;51.858;4.398;2022-10-16T00:23:54;3.22;;;1.17;;
40453;SDS011;26160;51.858;4.398;2022-10-16T00:48:23;3.25;;;1.75;;
40453;SDS011;26160;51.858;4.398;2022-10-16T00:51:25;4.68;;;1.73;;
40453;SDS011;26160;51.858;4.398;2022-10-16T01:04:32;5.40;;;1.50;;
40453;SDS011;26160;51.858;4.398;2022-10-16T01:21:05;3.35;;;1.55;;
40453;SDS011;26160;51.858;4.398;2022-10-16T01:29:07;5.00;;;2.28;;
40453;SDS011;26160;51.858;4.398;2022-10-16T01:31:57;4.82;;;2.38;;
40453;SDS011;26160;51.858;4.398;2022-10-16T01:34:33;7.15;;;2.20;;
40453;SDS011;26160;51.858;4.398;2022-10-16T01:40:23;5.97;;;1.98;;
40453;SDS011;26160;51.858;4.398;2022-10-16T01:42:54;7.35;;;2.38;;
40453;SDS011;26160;51.858;4.398;2022-10-16T01:45:26;5.57;;;2.30;;
40453;SDS011;26160;51.858;4.398;2022-10-16T01:47:56;6.18;;;2.03;;
40453;SDS011;26160;51.858;4.398;2022-10-16T01:50:26;3.60;;;2.35;;
40453;SDS011;26160;51.858;4.398;2022-10-16T01:52:54;6.75;;;2.17;;
40453;SDS011;26160;51.858;4.398;2022-10-16T01:55:27;4.57;;;2.00;;
40453;SDS011;26160;51.858;4.398;2022-10-16T01:57:57;4.45;;;2.50;;
40453;SDS011;26160;51.858;4.398;2022-10-16T02:00:24;5.47;;;2.63;;
40453;SDS011;26160;51.858;4.398;2022-10-16T02:02:53;3.13;;;2.13;;
40453;SDS011;26160;51.858;4.398;2022-10-16T02:05:32;5.63;;;2.03;;
40453;SDS011;26160;51.858;4.398;2022-10-16T02:08:04;4.25;;;2.00;;
40453;SDS011;26160;51.858;4.398;2022-10-16T02:10:32;5.88;;;2.10;;
40453;SDS011;26160;51.858;4.398;2022-10-16T02:13:45;3.53;;;1.63;;
40453;SDS011;26160;51.858;4.398;2022-10-16T02:15:57;6.88;;;2.08;;
40453;SDS011;26160;51.858;4.398;2022-10-16T02:18:26;4.93;;;1.90;;
40453;SDS011;26160;51.858;4.398;2022-10-16T02:26:46;5.25;;;1.70;;
40453;SDS011;26160;51.858;4.398;2022-10-16T02:29:34;7.78;;;1.85;;
40453;SDS011;26160;51.858;4.398;2022-10-16T02:32:04;4.47;;;1.83;;
40453;SDS011;26160;51.858;4.398;2022-10-16T02:34:34;5.05;;;1.83;;
40453;SDS011;26160;51.858;4.398;2022-10-16T02:37:01;4.53;;;1.63;;
40453;SDS011;26160;51.858;4.398;2022-10-16T02:39:33;4.90;;;2.00;;
40453;SDS011;26160;51.858;4.398;2022-10-16T02:42:06;4.03;;;1.80;;
40453;SDS011;26160;51.858;4.398;2022-10-16T02:44:55;3.88;;;1.73;;
40453;SDS011;26160;51.858;4.398;2022-10-16T02:47:21;4.07;;;1.83;;
40453;SDS011;26160;51.858;4.398;2022-10-16T02:49:47;5.20;;;2.25;;
40453;SDS011;26160;51.858;4.398;2022-10-16T02:52:13;3.97;;;1.80;;
40453;SDS011;26160;51.858;4.398;2022-10-16T02:54:40;3.50;;;1.80;;
40453;SDS011;26160;51.858;4.398;2022-10-16T02:57:19;3.97;;;2.05;;
40453;SDS011;26160;51.858;4.398;2022-10-16T02:59:54;3.00;;;1.75;;
40453;SDS011;26160;51.858;4.398;2022-10-16T03:02:24;5.13;;;1.92;;
40453;SDS011;26160;51.858;4.398;2022-10-16T03:04:51;3.20;;;1.95;;
40453;SDS011;26160;51.858;4.398;2022-10-16T03:07:24;4.45;;;1.80;;
40453;SDS011;26160;51.858;4.398;2022-10-16T03:09:52;4.32;;;2.20;;
40453;SDS011;26160;51.858;4.398;2022-10-16T03:12:18;5.28;;;2.03;;
40453;SDS011;26160;51.858;4.398;2022-10-16T03:19:57;5.15;;;1.90;;
40453;SDS011;26160;51.858;4.398;2022-10-16T03:22:23;3.50;;;1.95;;
40453;SDS011;26160;51.858;4.398;2022-10-16T03:24:50;9.13;;;1.90;;
40453;SDS011;26160;51.858;4.398;2022-10-16T03:27:16;4.10;;;1.70;;
40453;SDS011;26160;51.858;4.398;2022-10-16T03:29:44;3.83;;;1.73;;
40453;SDS011;26160;51.858;4.398;2022-10-16T03:32:11;4.13;;;2.00;;
40453;SDS011;26160;51.858;4.398;2022-10-16T03:34:38;5.00;;;2.17;;
40453;SDS011;26160;51.858;4.398;2022-10-16T03:37:13;4.00;;;1.90;;
40453;SDS011;26160;51.858;4.398;2022-10-16T03:39:40;8.10;;;2.05;;
40453;SDS011;26160;51.858;4.398;2022-10-16T03:42:07;2.72;;;1.70;;
40453;SDS011;26160;51.858;4.398;2022-10-16T03:44:33;6.70;;;1.90;;
40453;SDS011;26160;51.858;4.398;2022-10-16T03:47:00;5.55;;;1.50;;
40453;SDS011;26160;51.858;4.398;2022-10-16T03:49:32;4.68;;;2.38;;
40453;SDS011;26160;51.858;4.398;2022-10-16T03:52:08;6.57;;;1.88;;
40453;SDS011;26160;51.858;4.398;2022-10-16T03:54:35;5.90;;;2.28;;
40453;SDS011;26160;51.858;4.398;2022-10-16T03:57:01;5.10;;;1.80;;
40453;SDS011;26160;51.858;4.398;2022-10-16T03:59:33;7.50;;;1.95;;
40453;SDS011;26160;51.858;4.398;2022-10-16T04:02:12;3.97;;;1.95;;
40453;SDS011;26160;51.858;4.398;2022-10-16T04:04:42;7.82;;;2.65;;
40453;SDS011;26160;51.858;4.398;2022-10-16T04:07:14;6.25;;;2.08;;
40453;SDS011;26160;51.858;4.398;2022-10-16T04:09:42;8.65;;;2.67;;
40453;SDS011;26160;51.858;4.398;2022-10-16T04:12:15;4.97;;;2.50;;
40453;SDS011;26160;51.858;4.398;2022-10-16T04:14:44;3.72;;;2.58;;
40453;SDS011;26160;51.858;4.398;2022-10-16T04:17:10;4.95;;;2.42;;
40453;SDS011;26160;51.858;4.398;2022-10-16T04:19:38;4.25;;;2.17;;
40453;SDS011;26160;51.858;4.398;2022-10-16T04:22:04;8.93;;;2.55;;
40453;SDS011;26160;51.858;4.398;2022-10-16T04:24:31;7.35;;;2.90;;
40453;SDS011;26160;51.858;4.398;2022-10-16T04:26:58;8.75;;;2.33;;
40453;SDS011;26160;51.858;4.398;2022-10-16T04:29:25;5.45;;;2.20;;
40453;SDS011;26160;51.858;4.398;2022-10-16T04:32:22;4.72;;;2.65;;
40453;SDS011;26160;51.858;4.398;2022-10-16T04:34:58;7.55;;;2.42;;
40453;SDS011;26160;51.858;4.398;2022-10-16T04:37:28;6.38;;;2.25;;
40453;SDS011;26160;51.858;4.398;2022-10-16T04:39:54;6.97;;;2.42;;
40453;SDS011;26160;51.858;4.398;2022-10-16T04:42:21;8.30;;;2.60;;
40453;SDS011;26160;51.858;4.398;2022-10-16T04:44:47;7.43;;;2.30;;
40453;SDS011;26160;51.858;4.398;2022-10-16T04:47:14;7.32;;;2.30;;
40453;SDS011;26160;51.858;4.398;2022-10-16T04:49:44;4.95;;;2.03;;
40453;SDS011;26160;51.858;4.398;2022-10-16T04:52:10;4.07;;;1.90;;
40453;SDS011;26160;51.858;4.398;2022-10-16T04:54:38;6.43;;;2.42;;
40453;SDS011;26160;51.858;4.398;2022-10-16T04:57:14;2.83;;;2.40;;
40453;SDS011;26160;51.858;4.398;2022-10-16T04:59:40;6.47;;;2.10;;
40453;SDS011;26160;51.858;4.398;2022-10-16T05:02:08;7.00;;;2.17;;
40453;SDS011;26160;51.858;4.398;2022-10-16T05:04:43;5.00;;;2.08;;
40453;SDS011;26160;51.858;4.398;2022-10-16T05:07:16;9.77;;;2.85;;
40453;SDS011;26160;51.858;4.398;2022-10-16T05:10:01;5.18;;;2.22;;
40453;SDS011;26160;51.858;4.398;2022-10-16T05:12:36;7.03;;;2.00;;
40453;SDS011;26160;51.858;4.398;2022-10-16T05:17:34;5.30;;;2.10;;
40453;SDS011;26160;51.858;4.398;2022-10-16T05:20:03;4.55;;;1.88;;
40453;SDS011;26160;51.858;4.398;2022-10-16T05:22:41;6.43;;;2.00;;
40453;SDS011;26160;51.858;4.398;2022-10-16T05:25:13;4.28;;;1.67;;
40453;SDS011;26160;51.858;4.398;2022-10-16T05:27:41;6.30;;;1.70;;
40453;SDS011;26160;51.858;4.398;2022-10-16T05:30:10;5.07;;;1.60;;
40453;SDS011;26160;51.858;4.398;2022-10-16T05:32:36;8.52;;;1.83;;
40453;SDS011;26160;51.858;4.398;2022-10-16T05:35:06;7.95;;;1.90;;
40453;SDS011;26160;51.858;4.398;2022-10-16T05:37:33;8.10;;;1.90;;
40453;SDS011;26160;51.858;4.398;2022-10-16T05:40:04;5.57;;;1.92;;
40453;SDS011;26160;51.858;4.398;2022-10-16T05:42:38;4.57;;;2.00;;
40453;SDS011;26160;51.858;4.398;2022-10-16T05:47:45;5.53;;;1.70;;
40453;SDS011;26160;51.858;4.398;2022-10-16T05:50:12;4.82;;;1.30;;
40453;SDS011;26160;51.858;4.398;2022-10-16T05:52:38;3.83;;;1.38;;
40453;SDS011;26160;51.858;4.398;2022-10-16T05:55:04;4.78;;;1.80;;
40453;SDS011;26160;51.858;4.398;2022-10-16T05:57:31;5.03;;;1.38;;
40453;SDS011;26160;51.858;4.398;2022-10-16T05:59:58;7.93;;;1.90;;
40453;SDS011;26160;51.858;4.398;2022-10-16T06:02:24;9.73;;;1.30;;
40453;SDS011;26160;51.858;4.398;2022-10-16T06:04:55;5.55;;;1.10;;
40453;SDS011;26160;51.858;4.398;2022-10-16T06:10:40;7.50;;;1.30;;
40453;SDS011;26160;51.858;4.398;2022-10-16T06:13:10;6.70;;;1.23;;
40453;SDS011;26160;51.858;4.398;2022-10-16T06:23:51;5.18;;;2.05;;
40453;SDS011;26160;51.858;4.398;2022-10-16T06:26:31;5.65;;;2.08;;
40453;SDS011;26160;51.858;4.398;2022-10-16T06:31:48;7.22;;;2.25;;
40453;SDS011;26160;51.858;4.398;2022-10-16T06:34:15;6.53;;;2.40;;
40453;SDS011;26160;51.858;4.398;2022-10-16T06:39:44;7.75;;;1.60;;
40453;SDS011;26160;51.858;4.398;2022-10-16T06:48:54;7.90;;;1.73;;
40453;SDS011;26160;51.858;4.398;2022-10-16T07:02:36;7.03;;;1.75;;
40453;SDS011;26160;51.858;4.398;2022-10-16T07:05:06;7.13;;;1.70;;
40453;SDS011;26160;51.858;4.398;2022-10-16T07:07:37;5.63;;;2.28;;
40453;SDS011;26160;51.858;4.398;2022-10-16T07:10:17;8.38;;;1.90;;
40453;SDS011;26160;51.858;4.398;2022-10-16T07:12:43;4.57;;;1.77;;
40453;SDS011;26160;51.858;4.398;2022-10-16T07:15:17;9.10;;;2.38;;
40453;SDS011;26160;51.858;4.398;2022-10-16T07:17:59;10.35;;;2.45;;
40453;SDS011;26160;51.858;4.398;2022-10-16T07:20:30;7.55;;;2.17;;
40453;SDS011;26160;51.858;4.398;2022-10-16T07:23:01;5.32;;;1.92;;
40453;SDS011;26160;51.858;4.398;2022-10-16T07:25:45;9.00;;;2.40;;
40453;SDS011;26160;51.858;4.398;2022-10-16T07:28:24;12.00;;;2.00;;
40453;SDS011;26160;51.858;4.398;2022-10-16T07:33:55;7.72;;;2.00;;
40453;SDS011;26160;51.858;4.398;2022-10-16T07:39:35;9.40;;;2.10;;
40453;SDS011;26160;51.858;4.398;2022-10-16T07:42:23;9.48;;;1.83;;
40453;SDS011;26160;51.858;4.398;2022-10-16T07:45:06;11.02;;;2.58;;
40453;SDS011;26160;51.858;4.398;2022-10-16T07:47:36;7.00;;;1.83;;
40453;SDS011;26160;51.858;4.398;2022-10-16T08:01:28;8.02;;;1.58;;
40453;SDS011;26160;51.858;4.398;2022-10-16T08:03:54;13.05;;;1.60;;
40453;SDS011;26160;51.858;4.398;2022-10-16T08:11:45;11.30;;;1.85;;
40453;SDS011;26160;51.858;4.398;2022-10-16T08:14:19;6.03;;;1.60;;
40453;SDS011;26160;51.858;4.398;2022-10-16T08:16:50;7.30;;;1.42;;
40453;SDS011;26160;51.858;4.398;2022-10-16T08:19:23;9.68;;;1.88;;
40453;SDS011;26160;51.858;4.398;2022-10-16T08:21:52;9.65;;;1.67;;
40453;SDS011;26160;51.858;4.398;2022-10-16T08:28:21;9.18;;;1.63;;
40453;SDS011;26160;51.858;4.398;2022-10-16T08:31:23;11.60;;;2.00;;
40453;SDS011;26160;51.858;4.398;2022-10-16T08:36:23;11.02;;;2.03;;
40453;SDS011;26160;51.858;4.398;2022-10-16T09:00:21;7.47;;;2.65;;
40453;SDS011;26160;51.858;4.398;2022-10-16T09:20:25;6.60;;;1.80;;
40453;SDS011;26160;51.858;4.398;2022-10-16T09:23:34;12.82;;;2.45;;
40453;SDS011;26160;51.858;4.398;2022-10-16T09:26:01;11.73;;;1.80;;
40453;SDS011;26160;51.858;4.398;2022-10-16T09:28:31;8.88;;;2.00;;
40453;SDS011;26160;51.858;4.398;2022-10-16T09:30:57;10.45;;;1.90;;
40453;SDS011;26160;51.858;4.398;2022-10-16T09:33:59;8.63;;;2.42;;
40453;SDS011;26160;51.858;4.398;2022-10-16T09:41:39;10.45;;;2.13;;
40453;SDS011;26160;51.858;4.398;2022-10-16T09:50:19;10.10;;;2.30;;
40453;SDS011;26160;51.858;4.398;2022-10-16T09:53:14;11.65;;;2.17;;
40453;SDS011;26160;51.858;4.398;2022-10-16T09:55:50;9.73;;;1.83;;
40453;SDS011;26160;51.858;4.398;2022-10-16T09:58:22;10.23;;;2.00;;
40453;SDS011;26160;51.858;4.398;2022-10-16T10:00:51;12.15;;;2.13;;
40453;SDS011;26160;51.858;4.398;2022-10-16T10:06:13;11.30;;;2.17;;
40453;SDS011;26160;51.858;4.398;2022-10-16T10:08:53;11.57;;;2.10;;
40453;SDS011;26160;51.858;4.398;2022-10-16T10:11:37;9.73;;;2.15;;
40453;SDS011;26160;51.858;4.398;2022-10-16T10:16:46;16.85;;;2.20;;
40453;SDS011;26160;51.858;4.398;2022-10-16T10:19:22;10.90;;;1.92;;
40453;SDS011;26160;51.858;4.398;2022-10-16T10:21:50;10.43;;;2.20;;
40453;SDS011;26160;51.858;4.398;2022-10-16T10:24:17;11.10;;;2.05;;
40453;SDS011;26160;51.858;4.398;2022-10-16T10:26:47;9.88;;;2.30;;
40453;SDS011;26160;51.858;4.398;2022-10-16T10:32:47;16.45;;;2.25;;
40453;SDS011;26160;51.858;4.398;2022-10-16T10:35:22;16.35;;;2.60;;
40453;SDS011;26160;51.858;4.398;2022-10-16T10:40:47;9.48;;;1.50;;
40453;SDS011;26160;51.858;4.398;2022-10-16T10:46:04;16.20;;;2.40;;
40453;SDS011;26160;51.858;4.398;2022-10-16T10:51:59;11.30;;;2.47;;
40453;SDS011;26160;51.858;4.398;2022-10-16T10:56:58;9.30;;;2.42;;
40453;SDS011;26160;51.858;4.398;2022-10-16T10:59:36;10.93;;;1.75;;
40453;SDS011;26160;51.858;4.398;2022-10-16T11:07:45;8.63;;;1.88;;
40453;SDS011;26160;51.858;4.398;2022-10-16T11:10:21;9.90;;;1.88;;
40453;SDS011;26160;51.858;4.398;2022-10-16T11:12:57;12.38;;;2.42;;
40453;SDS011;26160;51.858;4.398;2022-10-16T11:15:35;15.00;;;2.45;;
40453;SDS011;26160;51.858;4.398;2022-10-16T11:18:08;11.10;;;1.90;;
40453;SDS011;26160;51.858;4.398;2022-10-16T11:20:45;12.55;;;1.85;;
40453;SDS011;26160;51.858;4.398;2022-10-16T11:25:56;13.65;;;2.92;;
40453;SDS011;26160;51.858;4.398;2022-10-16T11:29:10;12.48;;;2.22;;
40453;SDS011;26160;51.858;4.398;2022-10-16T11:34:17;9.35;;;2.35;;
40453;SDS011;26160;51.858;4.398;2022-10-16T11:37:14;11.00;;;2.40;;
40453;SDS011;26160;51.858;4.398;2022-10-16T11:39:46;11.10;;;1.85;;
40453;SDS011;26160;51.858;4.398;2022-10-16T11:44:55;11.82;;;2.17;;
40453;SDS011;26160;51.858;4.398;2022-10-16T11:55:16;8.57;;;1.58;;
40453;SDS011;26160;51.858;4.398;2022-10-16T11:57:54;14.45;;;2.45;;
40453;SDS011;26160;51.858;4.398;2022-10-16T12:00:30;9.35;;;2.33;;
40453;SDS011;26160;51.858;4.398;2022-10-16T12:08:58;13.07;;;2.00;;
40453;SDS011;26160;51.858;4.398;2022-10-16T12:16:57;13.70;;;2.33;;
40453;SDS011;26160;51.858;4.398;2022-10-16T12:19:42;12.50;;;2.20;;
40453;SDS011;26160;51.858;4.398;2022-10-16T12:22:15;12.00;;;2.42;;
40453;SDS011;26160;51.858;4.398;2022-10-16T12:24:44;11.82;;;2.50;;
40453;SDS011;26160;51.858;4.398;2022-10-16T12:27:28;10.30;;;2.35;;
40453;SDS011;26160;51.858;4.398;2022-10-16T12:29:56;10.00;;;1.90;;
40453;SDS011;26160;51.858;4.398;2022-10-16T12:32:28;12.53;;;1.83;;
40453;SDS011;26160;51.858;4.398;2022-10-16T12:34:55;7.72;;;1.42;;
40453;SDS011;26160;51.858;4.398;2022-10-16T12:37:26;16.60;;;2.33;;
40453;SDS011;26160;51.858;4.398;2022-10-16T12:39:56;10.27;;;1.95;;
40453;SDS011;26160;51.858;4.398;2022-10-16T12:44:52;13.90;;;3.00;;
40453;SDS011;26160;51.858;4.398;2022-10-16T12:47:24;11.13;;;1.90;;
40453;SDS011;26160;51.858;4.398;2022-10-16T12:52:35;8.38;;;1.90;;
40453;SDS011;26160;51.858;4.398;2022-10-16T12:55:04;8.88;;;1.83;;
40453;SDS011;26160;51.858;4.398;2022-10-16T13:00:32;12.27;;;2.70;;
40453;SDS011;26160;51.858;4.398;2022-10-16T13:22:50;12.43;;;2.35;;
40453;SDS011;26160;51.858;4.398;2022-10-16T13:25:46;12.40;;;1.77;;
40453;SDS011;26160;51.858;4.398;2022-10-16T13:28:14;7.88;;;1.80;;
40453;SDS011;26160;51.858;4.398;2022-10-16T13:30:45;11.82;;;2.05;;
40453;SDS011;26160;51.858;4.398;2022-10-16T13:35:51;9.85;;;2.03;;
40453;SDS011;26160;51.858;4.398;2022-10-16T13:38:21;10.00;;;2.53;;
40453;SDS011;26160;51.858;4.398;2022-10-16T13:40:53;12.82;;;2.35;;
40453;SDS011;26160;51.858;4.398;2022-10-16T13:43:40;7.35;;;1.60;;
40453;SDS011;26160;51.858;4.398;2022-10-16T13:46:21;9.63;;;1.73;;
40453;SDS011;26160;51.858;4.398;2022-10-16T13:49:23;10.15;;;1.70;;
40453;SDS011;26160;51.858;4.398;2022-10-16T13:51:58;10.10;;;2.83;;
40453;SDS011;26160;51.858;4.398;2022-10-16T13:54:26;15.40;;;1.95;;
40453;SDS011;26160;51.858;4.398;2022-10-16T13:56:54;7.68;;;1.60;;
40453;SDS011;26160;51.858;4.398;2022-10-16T13:59:24;12.73;;;2.08;;
40453;SDS011;26160;51.858;4.398;2022-10-16T14:01:52;8.80;;;1.90;;
40453;SDS011;26160;51.858;4.398;2022-10-16T14:04:21;14.20;;;2.35;;
40453;SDS011;26160;51.858;4.398;2022-10-16T14:06:49;12.13;;;1.77;;
40453;SDS011;26160;51.858;4.398;2022-10-16T14:11:49;9.60;;;2.10;;
40453;SDS011;26160;51.858;4.398;2022-10-16T14:14:21;13.00;;;2.05;;
40453;SDS011;26160;51.858;4.398;2022-10-16T14:16:48;9.93;;;2.22;;
40453;SDS011;26160;51.858;4.398;2022-10-16T14:19:18;6.38;;;1.40;;
40453;SDS011;26160;51.858;4.398;2022-10-16T14:21:50;10.05;;;2.05;;
40453;SDS011;26160;51.858;4.398;2022-10-16T14:24:24;9.73;;;2.33;;
40453;SDS011;26160;51.858;4.398;2022-10-16T14:26:52;8.75;;;1.90;;
40453;SDS011;26160;51.858;4.398;2022-10-16T14:29:22;9.07;;;1.95;;
40453;SDS011;26160;51.858;4.398;2022-10-16T14:32:00;9.70;;;2.17;;
40453;SDS011;26160;51.858;4.398;2022-10-16T14:34:32;11.63;;;2.00;;
40453;SDS011;26160;51.858;4.398;2022-10-16T14:37:08;11.15;;;1.90;;
40453;SDS011;26160;51.858;4.398;2022-10-16T14:39:49;9.93;;;2.13;;
40453;SDS011;26160;51.858;4.398;2022-10-16T14:42:17;12.65;;;2.03;;
40453;SDS011;26160;51.858;4.398;2022-10-16T14:44:45;8.07;;;1.63;;
40453;SDS011;26160;51.858;4.398;2022-10-16T14:47:13;8.73;;;2.20;;
40453;SDS011;26160;51.858;4.398;2022-10-16T14:49:42;9.55;;;1.88;;
40453;SDS011;26160;51.858;4.398;2022-10-16T14:52:09;14.85;;;2.25;;
40453;SDS011;26160;51.858;4.398;2022-10-16T14:54:37;11.23;;;2.63;;
40453;SDS011;26160;51.858;4.398;2022-10-16T14:57:13;8.00;;;1.70;;
40453;SDS011;26160;51.858;4.398;2022-10-16T14:59:45;10.73;;;1.73;;
40453;SDS011;26160;51.858;4.398;2022-10-16T15:04:45;8.20;;;1.85;;
40453;SDS011;26160;51.858;4.398;2022-10-16T15:07:15;9.20;;;2.35;;
40453;SDS011;26160;51.858;4.398;2022-10-16T15:09:41;9.93;;;1.95;;
40453;SDS011;26160;51.858;4.398;2022-10-16T15:12:07;10.50;;;2.08;;
40453;SDS011;26160;51.858;4.398;2022-10-16T15:14:34;9.90;;;2.05;;
40453;SDS011;26160;51.858;4.398;2022-10-16T15:17:00;9.98;;;2.20;;
40453;SDS011;26160;51.858;4.398;2022-10-16T15:19:26;9.93;;;2.42;;
40453;SDS011;26160;51.858;4.398;2022-10-16T15:21:52;10.52;;;2.17;;
40453;SDS011;26160;51.858;4.398;2022-10-16T15:24:21;10.38;;;1.80;;
40453;SDS011;26160;51.858;4.398;2022-10-16T15:26:47;13.77;;;2.40;;
40453;SDS011;26160;51.858;4.398;2022-10-16T15:29:14;9.75;;;2.35;;
40453;SDS011;26160;51.858;4.398;2022-10-16T15:31:41;9.10;;;1.98;;
40453;SDS011;26160;51.858;4.398;2022-10-16T15:34:08;11.90;;;2.10;;
40453;SDS011;26160;51.858;4.398;2022-10-16T15:36:37;9.93;;;2.13;;
40453;SDS011;26160;51.858;4.398;2022-10-16T15:39:03;8.95;;;1.73;;
40453;SDS011;26160;51.858;4.398;2022-10-16T15:41:31;7.95;;;1.98;;
40453;SDS011;26160;51.858;4.398;2022-10-16T15:43:57;9.07;;;1.80;;
40453;SDS011;26160;51.858;4.398;2022-10-16T15:46:23;7.65;;;1.90;;
40453;SDS011;26160;51.858;4.398;2022-10-16T15:48:50;9.80;;;2.95;;
40453;SDS011;26160;51.858;4.398;2022-10-16T15:51:21;10.25;;;2.45;;
40453;SDS011;26160;51.858;4.398;2022-10-16T15:53:47;12.93;;;2.40;;
40453;SDS011;26160;51.858;4.398;2022-10-16T15:56:13;8.65;;;1.98;;
40453;SDS011;26160;51.858;4.398;2022-10-16T15:58:41;9.07;;;2.15;;
40453;SDS011;26160;51.858;4.398;2022-10-16T16:01:08;9.68;;;2.70;;
40453;SDS011;26160;51.858;4.398;2022-10-16T16:03:36;6.18;;;2.25;;
40453;SDS011;26160;51.858;4.398;2022-10-16T16:06:05;8.55;;;2.30;;
40453;SDS011;26160;51.858;4.398;2022-10-16T16:08:33;12.52;;;2.55;;
40453;SDS011;26160;51.858;4.398;2022-10-16T16:11:07;7.32;;;2.10;;
40453;SDS011;26160;51.858;4.398;2022-10-16T16:13:37;9.10;;;2.03;;
40453;SDS011;26160;51.858;4.398;2022-10-16T16:16:08;12.40;;;2.38;;
40453;SDS011;26160;51.858;4.398;2022-10-16T16:18:35;7.60;;;2.35;;
40453;SDS011;26160;51.858;4.398;2022-10-16T16:21:02;8.88;;;2.28;;
40453;SDS011;26160;51.858;4.398;2022-10-16T16:23:29;13.73;;;3.17;;
40453;SDS011;26160;51.858;4.398;2022-10-16T16:26:02;10.27;;;2.90;;
40453;SDS011;26160;51.858;4.398;2022-10-16T16:28:28;11.25;;;4.00;;
40453;SDS011;26160;51.858;4.398;2022-10-16T16:30:54;9.32;;;2.97;;
40453;SDS011;26160;51.858;4.398;2022-10-16T16:33:20;10.93;;;2.60;;
40453;SDS011;26160;51.858;4.398;2022-10-16T16:35:46;8.13;;;2.58;;
40453;SDS011;26160;51.858;4.398;2022-10-16T16:38:12;10.07;;;2.90;;
40453;SDS011;26160;51.858;4.398;2022-10-16T16:40:38;9.35;;;2.50;;
40453;SDS011;26160;51.858;4.398;2022-10-16T16:43:04;11.93;;;2.75;;
40453;SDS011;26160;51.858;4.398;2022-10-16T16:45:30;11.00;;;3.60;;
40453;SDS011;26160;51.858;4.398;2022-10-16T16:48:01;13.43;;;3.60;;
40453;SDS011;26160;51.858;4.398;2022-10-16T16:50:27;11.05;;;3.13;;
40453;SDS011;26160;51.858;4.398;2022-10-16T16:52:53;11.82;;;2.92;;
40453;SDS011;26160;51.858;4.398;2022-10-16T16:55:19;11.80;;;3.47;;
40453;SDS011;26160;51.858;4.398;2022-10-16T16:57:47;10.85;;;3.63;;
40453;SDS011;26160;51.858;4.398;2022-10-16T17:00:14;11.43;;;3.47;;
40453;SDS011;26160;51.858;4.398;2022-10-16T17:02:41;12.25;;;3.83;;
40453;SDS011;26160;51.858;4.398;2022-10-16T17:05:10;10.93;;;3.25;;
40453;SDS011;26160;51.858;4.398;2022-10-16T17:07:37;12.10;;;3.70;;
40453;SDS011;26160;51.858;4.398;2022-10-16T17:10:06;9.52;;;3.08;;
40453;SDS011;26160;51.858;4.398;2022-10-16T17:12:33;12.02;;;3.50;;
40453;SDS011;26160;51.858;4.398;2022-10-16T17:14:59;13.82;;;3.85;;
40453;SDS011;26160;51.858;4.398;2022-10-16T17:17:26;12.93;;;3.30;;
40453;SDS011;26160;51.858;4.398;2022-10-16T17:19:52;14.05;;;3.65;;
40453;SDS011;26160;51.858;4.398;2022-10-16T17:22:18;8.23;;;3.00;;
40453;SDS011;26160;51.858;4.398;2022-10-16T17:24:47;10.23;;;3.42;;
40453;SDS011;26160;51.858;4.398;2022-10-16T17:27:17;11.02;;;3.75;;
40453;SDS011;26160;51.858;4.398;2022-10-16T17:29:44;16.40;;;4.63;;
40453;SDS011;26160;51.858;4.398;2022-10-16T17:32:10;14.18;;;4.65;;
40453;SDS011;26160;51.858;4.398;2022-10-16T17:34:36;12.02;;;4.10;;
40453;SDS011;26160;51.858;4.398;2022-10-16T17:37:04;10.40;;;4.45;;
40453;SDS011;26160;51.858;4.398;2022-10-16T17:39:32;12.15;;;4.10;;
40453;SDS011;26160;51.858;4.398;2022-10-16T17:41:59;10.77;;;3.72;;
40453;SDS011;26160;51.858;4.398;2022-10-16T17:44:31;11.95;;;4.07;;
40453;SDS011;26160;51.858;4.398;2022-10-16T17:46:57;10.68;;;3.90;;
40453;SDS011;26160;51.858;4.398;2022-10-16T17:49:23;12.60;;;3.80;;
40453;SDS011;26160;51.858;4.398;2022-10-16T17:51:50;9.48;;;3.03;;
40453;SDS011;26160;51.858;4.398;2022-10-16T17:54:17;11.00;;;3.33;;
40453;SDS011;26160;51.858;4.398;2022-10-16T17:56:44;10.20;;;3.15;;
40453;SDS011;26160;51.858;4.398;2022-10-16T17:59:12;11.93;;;3.63;;
40453;SDS011;26160;51.858;4.398;2022-10-16T18:01:38;11.00;;;4.57;;
40453;SDS011;26160;51.858;4.398;2022-10-16T18:04:07;9.23;;;3.53;;
40453;SDS011;26160;51.858;4.398;2022-10-16T18:06:38;11.05;;;4.15;;
40453;SDS011;26160;51.858;4.398;2022-10-16T18:09:06;15.93;;;4.32;;
40453;SDS011;26160;51.858;4.398;2022-10-16T18:11:35;13.32;;;5.10;;
40453;SDS011;26160;51.858;4.398;2022-10-16T18:14:03;14.70;;;4.72;;
40453;SDS011;26160;51.858;4.398;2022-10-16T18:16:36;13.52;;;4.22;;
40453;SDS011;26160;51.858;4.398;2022-10-16T18:19:10;12.05;;;4.25;;
40453;SDS011;26160;51.858;4.398;2022-10-16T18:21:38;10.00;;;4.25;;
40453;SDS011;26160;51.858;4.398;2022-10-16T18:24:08;16.20;;;5.07;;
40453;SDS011;26160;51.858;4.398;2022-10-16T18:26:37;10.95;;;4.70;;
40453;SDS011;26160;51.858;4.398;2022-10-16T18:29:20;13.50;;;5.40;;
40453;SDS011;26160;51.858;4.398;2022-10-16T18:31:46;12.70;;;4.60;;
40453;SDS011;26160;51.858;4.398;2022-10-16T18:34:21;14.15;;;5.47;;
40453;SDS011;26160;51.858;4.398;2022-10-16T18:36:48;15.63;;;5.70;;
40453;SDS011;26160;51.858;4.398;2022-10-16T18:39:15;14.93;;;5.35;;
40453;SDS011;26160;51.858;4.398;2022-10-16T18:41:43;17.83;;;6.68;;
40453;SDS011;26160;51.858;4.398;2022-10-16T18:44:10;17.67;;;7.25;;
40453;SDS011;26160;51.858;4.398;2022-10-16T18:46:39;18.80;;;6.88;;
40453;SDS011;26160;51.858;4.398;2022-10-16T18:52:28;16.05;;;7.28;;
40453;SDS011;26160;51.858;4.398;2022-10-16T18:54:58;16.02;;;6.55;;
40453;SDS011;26160;51.858;4.398;2022-10-16T18:57:31;15.38;;;6.90;;
40453;SDS011;26160;51.858;4.398;2022-10-16T19:00:02;17.40;;;5.97;;
40453;SDS011;26160;51.858;4.398;2022-10-16T19:05:32;14.15;;;5.13;;
40453;SDS011;26160;51.858;4.398;2022-10-16T19:10:47;16.33;;;6.20;;
40453;SDS011;26160;51.858;4.398;2022-10-16T19:15:51;13.32;;;5.78;;
40453;SDS011;26160;51.858;4.398;2022-10-16T19:21:14;13.35;;;5.32;;
40453;SDS011;26160;51.858;4.398;2022-10-16T19:40:52;10.45;;;4.97;;
40453;SDS011;26160;51.858;4.398;2022-10-16T19:53:09;9.07;;;4.80;;
40453;SDS011;26160;51.858;4.398;2022-10-16T20:04:34;14.40;;;5.05;;
40453;SDS011;26160;51.858;4.398;2022-10-16T20:12:44;13.20;;;5.05;;
40453;SDS011;26160;51.858;4.398;2022-10-16T20:15:16;8.65;;;4.93;;
40453;SDS011;26160;51.858;4.398;2022-10-16T20:17:54;13.60;;;5.13;;
40453;SDS011;26160;51.858;4.398;2022-10-16T20:20:28;10.52;;;4.90;;
40453;SDS011;26160;51.858;4.398;2022-10-16T20:23:27;8.68;;;5.35;;
40453;SDS011;26160;51.858;4.398;2022-10-16T21:02:25;10.18;;;5.72;;
40453;SDS011;26160;51.858;4.398;2022-10-16T21:13:50;10.90;;;5.68;;
40453;SDS011;26160;51.858;4.398;2022-10-16T21:19:38;11.40;;;5.90;;
40453;SDS011;26160;51.858;4.398;2022-10-16T21:52:18;10.85;;;4.47;;
40453;SDS011;26160;51.858;4.398;2022-10-16T22:02:23;11.00;;;4.45;;
40453;SDS011;26160;51.858;4.398;2022-10-16T22:13:45;8.00;;;5.20;;